createdAt,value
2022-08-20T00:00:49.452Z,0.00
2022-08-20T00:01:49.609Z,0.00
2022-08-20T00:02:49.454Z,0.00
2022-08-20T00:03:50.062Z,0.00
2022-08-20T00:04:49.392Z,0.00
2022-08-20T00:05:49.394Z,0.00
2022-08-20T00:06:49.387Z,0.00
2022-08-20T00:07:49.445Z,0.00
2022-08-20T00:08:49.397Z,0.00
2022-08-20T00:09:49.360Z,0.00
2022-08-20T00:10:53.640Z,0.00
2022-08-20T00:11:50.342Z,0.00
2022-08-20T00:12:49.346Z,0.00
2022-08-20T00:13:49.332Z,0.00
2022-08-20T00:14:49.355Z,0.00
2022-08-20T00:15:49.306Z,0.00
2022-08-20T00:16:49.304Z,0.00
2022-08-20T00:17:49.312Z,0.00
2022-08-20T00:18:49.320Z,0.00
2022-08-20T00:19:49.283Z,0.00
2022-08-20T00:20:49.271Z,0.00
2022-08-20T00:21:49.264Z,0.00
2022-08-20T00:22:49.251Z,0.00
2022-08-20T00:23:49.246Z,0.00
2022-08-20T00:24:49.259Z,0.00
2022-08-20T00:25:49.238Z,0.00
2022-08-20T00:26:51.678Z,0.00
2022-08-20T00:27:49.256Z,0.00
2022-08-20T00:28:49.207Z,0.00
2022-08-20T00:29:49.203Z,0.00
2022-08-20T00:30:49.207Z,0.00
2022-08-20T00:31:49.180Z,0.00
2022-08-20T00:32:49.170Z,0.00
2022-08-20T00:33:49.173Z,0.00
2022-08-20T00:34:49.167Z,0.00
2022-08-20T00:35:49.145Z,0.00
2022-08-20T00:36:49.165Z,0.00
2022-08-20T00:37:50.070Z,0.00
2022-08-20T00:38:49.133Z,0.00
2022-08-20T00:39:49.183Z,0.00
2022-08-20T00:40:49.118Z,0.00
2022-08-20T00:41:49.111Z,0.00
2022-08-20T00:42:49.137Z,0.00
2022-08-20T00:43:49.101Z,0.00
2022-08-20T00:44:49.091Z,0.00
2022-08-20T00:45:49.140Z,0.00
2022-08-20T00:46:49.073Z,0.00
2022-08-20T00:47:51.351Z,0.00
2022-08-20T00:48:49.068Z,0.00
2022-08-20T00:49:49.060Z,0.00
2022-08-20T00:50:49.028Z,0.00
2022-08-20T00:51:49.020Z,0.00
2022-08-20T00:52:49.747Z,0.00
2022-08-20T00:53:49.030Z,0.00
2022-08-20T00:54:49.018Z,0.00
2022-08-20T00:55:48.993Z,0.00
2022-08-20T00:56:48.986Z,0.00
2022-08-20T00:57:59.887Z,0.00
2022-08-20T00:58:49.971Z,0.00
2022-08-20T00:59:48.991Z,0.00
2022-08-20T01:00:48.981Z,0.00
2022-08-20T01:01:50.665Z,0.00
2022-08-20T01:02:49.925Z,0.00
2022-08-20T01:03:48.947Z,0.00
2022-08-20T01:04:48.953Z,0.00
2022-08-20T01:05:48.934Z,0.00
2022-08-20T01:06:48.915Z,0.00
2022-08-20T01:07:48.955Z,0.00
2022-08-20T01:08:48.901Z,0.00
2022-08-20T01:09:58.423Z,0.00
2022-08-20T01:10:49.899Z,0.00
2022-08-20T01:11:48.933Z,0.00
2022-08-20T01:12:48.849Z,0.00
2022-08-20T01:13:49.930Z,0.00
2022-08-20T01:14:48.879Z,0.00
2022-08-20T01:15:48.828Z,0.00
2022-08-20T01:16:48.842Z,0.00
2022-08-20T01:17:48.824Z,0.00
2022-08-20T01:18:48.818Z,0.00
2022-08-20T01:19:48.814Z,0.00
2022-08-20T01:20:48.825Z,0.00
2022-08-20T01:21:49.788Z,0.00
2022-08-20T01:22:48.827Z,0.00
2022-08-20T01:23:48.775Z,0.00
2022-08-20T01:24:48.756Z,0.00
2022-08-20T01:25:48.760Z,0.00
2022-08-20T01:26:48.740Z,0.00
2022-08-20T01:27:48.741Z,0.00
2022-08-20T01:28:49.750Z,0.00
2022-08-20T01:29:48.714Z,0.00
2022-08-20T01:30:48.707Z,0.00
2022-08-20T01:31:48.695Z,0.00
2022-08-20T01:32:48.716Z,0.00
2022-08-20T01:33:48.715Z,0.00
2022-08-20T01:34:48.680Z,0.00
2022-08-20T01:35:48.673Z,0.00
2022-08-20T01:36:48.671Z,0.00
2022-08-20T01:37:48.733Z,0.00
2022-08-20T01:38:54.083Z,0.00
2022-08-20T01:39:49.671Z,0.00
2022-08-20T01:40:48.648Z,0.00
2022-08-20T01:41:48.614Z,0.00
2022-08-20T01:42:59.026Z,0.00
2022-08-20T01:43:49.658Z,0.00
2022-08-20T01:44:48.593Z,0.00
2022-08-20T01:45:48.695Z,0.00
2022-08-20T01:46:48.574Z,0.00
2022-08-20T01:47:49.747Z,0.00
2022-08-20T01:48:48.575Z,0.00
2022-08-20T01:49:48.561Z,0.00
2022-08-20T01:50:48.576Z,0.00
2022-08-20T01:51:48.649Z,0.00
2022-08-20T01:52:48.535Z,0.00
2022-08-20T01:53:48.521Z,0.00
2022-08-20T01:54:48.523Z,0.00
2022-08-20T01:55:48.513Z,0.00
2022-08-20T01:56:48.509Z,0.00
2022-08-20T01:57:48.482Z,0.00
2022-08-20T01:58:48.481Z,0.00
2022-08-20T01:59:49.477Z,0.00
2022-08-20T02:00:48.459Z,0.00
2022-08-20T02:01:48.487Z,0.00
2022-08-20T02:02:48.501Z,0.00
2022-08-20T02:03:48.444Z,0.00
2022-08-20T02:04:48.433Z,0.00
2022-08-20T02:05:48.447Z,0.00
2022-08-20T02:06:56.178Z,0.00
2022-08-20T02:07:49.440Z,0.00
2022-08-20T02:08:48.403Z,0.00
2022-08-20T02:09:48.407Z,0.00
2022-08-20T02:10:48.403Z,0.00
2022-08-20T02:11:48.370Z,0.00
2022-08-20T02:12:48.392Z,0.00
2022-08-20T02:13:48.366Z,0.00
2022-08-20T02:14:48.627Z,0.00
2022-08-20T02:15:48.372Z,0.00
2022-08-20T02:16:54.475Z,0.00
2022-08-20T02:17:49.388Z,0.00
2022-08-20T02:18:48.322Z,0.00
2022-08-20T02:19:48.312Z,0.00
2022-08-20T02:20:48.308Z,0.00
2022-08-20T02:21:48.314Z,0.00
2022-08-20T02:22:49.305Z,0.00
2022-08-20T02:23:48.294Z,0.00
2022-08-20T02:24:48.276Z,0.00
2022-08-20T02:25:48.259Z,0.00
2022-08-20T02:26:48.253Z,0.00
2022-08-20T02:27:48.249Z,0.00
2022-08-20T02:28:48.237Z,0.00
2022-08-20T02:29:48.255Z,0.00
2022-08-20T02:30:48.228Z,0.00
2022-08-20T02:32:32.108Z,0.00
2022-08-20T02:32:49.212Z,0.00
2022-08-20T02:34:14.832Z,0.00
2022-08-20T02:34:49.230Z,0.00
2022-08-20T02:35:48.183Z,0.00
2022-08-20T02:36:48.173Z,0.00
2022-08-20T02:37:48.150Z,0.00
2022-08-20T02:38:48.181Z,0.00
2022-08-20T02:39:48.186Z,0.00
2022-08-20T02:40:48.132Z,0.00
2022-08-20T02:41:48.159Z,0.00
2022-08-20T02:42:48.183Z,0.00
2022-08-20T02:43:48.125Z,0.00
2022-08-20T02:44:48.101Z,0.00
2022-08-20T02:45:48.095Z,0.00
2022-08-20T02:46:48.094Z,0.00
2022-08-20T02:47:48.104Z,0.00
2022-08-20T02:48:48.082Z,0.00
2022-08-20T02:49:48.067Z,0.00
2022-08-20T02:50:48.064Z,0.00
2022-08-20T02:51:48.105Z,0.00
2022-08-20T02:52:52.158Z,0.00
2022-08-20T02:53:48.034Z,0.00
2022-08-20T02:54:48.025Z,0.00
2022-08-20T02:55:48.014Z,0.00
2022-08-20T02:56:48.004Z,0.00
2022-08-20T02:57:48.016Z,0.00
2022-08-20T02:58:47.990Z,0.00
2022-08-20T02:59:47.998Z,0.00
2022-08-20T03:00:47.977Z,0.00
2022-08-20T03:01:47.979Z,0.00
2022-08-20T03:02:48.983Z,0.00
2022-08-20T03:03:47.953Z,0.00
2022-08-20T03:04:47.948Z,0.00
2022-08-20T03:05:47.956Z,0.00
2022-08-20T03:06:47.939Z,0.00
2022-08-20T03:07:47.929Z,0.00
2022-08-20T03:08:47.932Z,0.00
2022-08-20T03:09:47.897Z,0.00
2022-08-20T03:10:47.917Z,0.00
2022-08-20T03:11:47.904Z,0.00
2022-08-20T03:12:47.876Z,0.00
2022-08-20T03:13:47.890Z,0.00
2022-08-20T03:14:47.865Z,0.00
2022-08-20T03:15:47.848Z,0.00
2022-08-20T03:16:47.839Z,0.00
2022-08-20T03:17:47.829Z,0.00
2022-08-20T03:18:47.826Z,0.00
2022-08-20T03:19:47.836Z,0.00
2022-08-20T03:20:52.165Z,0.00
2022-08-20T03:21:47.816Z,0.00
2022-08-20T03:22:47.792Z,0.00
2022-08-20T03:23:47.783Z,0.00
2022-08-20T03:24:47.793Z,0.00
2022-08-20T03:25:47.789Z,0.00
2022-08-20T03:26:47.767Z,0.00
2022-08-20T03:27:49.921Z,0.00
2022-08-20T03:28:49.382Z,0.00
2022-08-20T03:29:47.751Z,0.00
2022-08-20T03:30:47.811Z,0.00
2022-08-20T03:31:47.734Z,0.00
2022-08-20T03:32:47.749Z,0.00
2022-08-20T03:33:53.589Z,0.00
2022-08-20T03:34:48.699Z,0.00
2022-08-20T03:35:47.689Z,0.00
2022-08-20T03:36:47.682Z,0.00
2022-08-20T03:37:48.503Z,0.00
2022-08-20T03:38:47.660Z,0.00
2022-08-20T03:39:47.750Z,0.00
2022-08-20T03:40:47.659Z,0.00
2022-08-20T03:41:47.666Z,1.00
2022-08-20T03:42:47.643Z,1.00
2022-08-20T03:43:47.665Z,1.00
2022-08-20T03:44:47.636Z,1.00
2022-08-20T03:45:48.615Z,1.00
2022-08-20T03:46:47.613Z,1.00
2022-08-20T03:47:47.668Z,1.00
2022-08-20T03:48:47.597Z,1.00
2022-08-20T03:49:47.625Z,1.00
2022-08-20T03:50:47.577Z,2.00
2022-08-20T03:51:57.389Z,2.00
2022-08-20T03:52:48.563Z,2.00
2022-08-20T03:53:47.545Z,3.00
2022-08-20T03:54:47.548Z,3.00
2022-08-20T03:55:54.127Z,4.00
2022-08-20T03:56:48.549Z,5.00
2022-08-20T03:57:47.518Z,6.00
2022-08-20T03:58:47.527Z,6.00
2022-08-20T03:59:51.940Z,9.00
2022-08-20T04:00:48.525Z,7.00
2022-08-20T04:01:47.541Z,10.00
2022-08-20T04:02:47.486Z,12.00
2022-08-20T04:03:49.992Z,13.00
2022-08-20T04:04:47.468Z,14.00
2022-08-20T04:05:47.481Z,15.00
2022-08-20T04:06:47.468Z,18.00
2022-08-20T04:07:47.448Z,19.00
2022-08-20T04:08:47.431Z,21.00
2022-08-20T04:09:47.415Z,22.00
2022-08-20T04:10:47.430Z,23.00
2022-08-20T04:11:47.428Z,23.00
2022-08-20T04:12:52.673Z,26.00
2022-08-20T04:13:48.597Z,27.00
2022-08-20T04:14:47.379Z,29.00
2022-08-20T04:15:47.403Z,32.00
2022-08-20T04:16:47.570Z,34.00
2022-08-20T04:17:48.118Z,37.00
2022-08-20T04:18:56.215Z,38.00
2022-08-20T04:19:48.344Z,39.00
2022-08-20T04:20:47.332Z,46.00
2022-08-20T04:21:47.342Z,47.00
2022-08-20T04:22:58.761Z,48.00
2022-08-20T04:23:48.314Z,54.00
2022-08-20T04:24:47.293Z,59.00
2022-08-20T04:25:47.299Z,63.00
2022-08-20T04:26:47.308Z,67.00
2022-08-20T04:27:47.271Z,70.00
2022-08-20T04:28:47.267Z,76.00
2022-08-20T04:29:47.258Z,78.00
2022-08-20T04:30:51.634Z,81.00
2022-08-20T04:31:47.291Z,82.00
2022-08-20T04:32:47.264Z,87.00
2022-08-20T04:33:47.217Z,91.00
2022-08-20T04:34:47.308Z,91.00
2022-08-20T04:35:47.218Z,92.00
2022-08-20T04:36:47.205Z,92.00
2022-08-20T04:37:47.222Z,94.00
2022-08-20T04:38:49.793Z,94.00
2022-08-20T04:39:47.273Z,93.00
2022-08-20T04:40:47.171Z,95.00
2022-08-20T04:41:47.174Z,96.00
2022-08-20T04:42:47.155Z,95.00
2022-08-20T04:43:48.165Z,96.00
2022-08-20T04:44:47.135Z,96.00
2022-08-20T04:45:47.134Z,96.00
2022-08-20T04:46:47.131Z,96.00
2022-08-20T04:47:47.112Z,97.00
2022-08-20T04:48:48.606Z,100.00
2022-08-20T04:49:47.127Z,99.00
2022-08-20T04:50:47.126Z,105.00
2022-08-20T04:51:47.085Z,107.00
2022-08-20T04:52:47.076Z,111.00
2022-08-20T04:53:51.918Z,118.00
2022-08-20T04:54:48.088Z,121.00
2022-08-20T04:55:47.068Z,125.00
2022-08-20T04:56:47.058Z,129.00
2022-08-20T04:57:47.028Z,133.00
2022-08-20T04:58:47.046Z,138.00
2022-08-20T04:59:47.015Z,137.00
2022-08-20T05:00:47.076Z,139.00
2022-08-20T05:01:46.999Z,139.00
2022-08-20T05:02:46.995Z,141.00
2022-08-20T05:03:46.987Z,141.00
2022-08-20T05:04:46.974Z,145.00
2022-08-20T05:05:47.033Z,147.00
2022-08-20T05:06:46.983Z,149.00
2022-08-20T05:07:46.974Z,152.00
2022-08-20T05:08:46.960Z,154.00
2022-08-20T05:09:46.946Z,160.00
2022-08-20T05:10:46.931Z,161.00
2022-08-20T05:11:46.948Z,168.00
2022-08-20T05:12:56.864Z,175.00
2022-08-20T05:13:47.913Z,184.00
2022-08-20T05:14:46.926Z,196.00
2022-08-20T05:15:46.884Z,201.00
2022-08-20T05:16:46.888Z,210.00
2022-08-20T05:17:46.897Z,219.00
2022-08-20T05:18:52.453Z,228.00
2022-08-20T05:19:47.877Z,241.00
2022-08-20T05:20:46.863Z,246.00
2022-08-20T05:21:46.854Z,254.00
2022-08-20T05:22:46.868Z,261.00
2022-08-20T05:23:46.827Z,269.00
2022-08-20T05:24:46.826Z,278.00
2022-08-20T05:25:46.806Z,289.00
2022-08-20T05:26:46.825Z,299.00
2022-08-20T05:27:47.884Z,310.00
2022-08-20T05:28:53.867Z,323.00
2022-08-20T05:29:47.776Z,337.00
2022-08-20T05:30:47.671Z,347.00
2022-08-20T05:31:46.770Z,359.00
2022-08-20T05:32:46.784Z,374.00
2022-08-20T05:33:46.777Z,390.00
2022-08-20T05:34:46.748Z,411.00
2022-08-20T05:35:46.730Z,425.00
2022-08-20T05:36:47.003Z,430.00
2022-08-20T05:37:46.726Z,432.00
2022-08-20T05:38:49.775Z,434.00
2022-08-20T05:39:46.798Z,435.00
2022-08-20T05:40:46.694Z,440.00
2022-08-20T05:41:46.690Z,445.00
2022-08-20T05:42:46.666Z,454.00
2022-08-20T05:43:46.661Z,463.00
2022-08-20T05:44:46.676Z,471.00
2022-08-20T05:45:46.665Z,476.00
2022-08-20T05:46:46.657Z,483.00
2022-08-20T05:47:46.636Z,483.00
2022-08-20T05:48:46.630Z,480.00
2022-08-20T05:49:46.639Z,470.00
2022-08-20T05:50:46.614Z,457.00
2022-08-20T05:51:46.604Z,448.00
2022-08-20T05:52:46.605Z,446.00
2022-08-20T05:53:46.589Z,458.00
2022-08-20T05:54:47.158Z,477.00
2022-08-20T05:55:46.586Z,497.00
2022-08-20T05:56:46.566Z,515.00
2022-08-20T05:57:46.547Z,536.00
2022-08-20T05:58:46.546Z,546.00
2022-08-20T05:59:46.533Z,551.00
2022-08-20T06:00:46.570Z,548.00
2022-08-20T06:01:46.609Z,544.00
2022-08-20T06:02:46.508Z,538.00
2022-08-20T06:03:46.514Z,532.00
2022-08-20T06:04:46.500Z,527.00
2022-08-20T06:05:47.499Z,515.00
2022-08-20T06:06:47.347Z,505.00
2022-08-20T06:07:46.478Z,496.00
2022-08-20T06:08:46.474Z,486.00
2022-08-20T06:09:46.446Z,476.00
2022-08-20T06:10:46.444Z,469.00
2022-08-20T06:11:46.476Z,465.00
2022-08-20T06:12:46.420Z,465.00
2022-08-20T06:13:46.418Z,467.00
2022-08-20T06:14:46.445Z,472.00
2022-08-20T06:15:46.396Z,477.00
2022-08-20T06:16:57.138Z,483.00
2022-08-20T06:17:47.402Z,490.00
2022-08-20T06:18:47.370Z,492.00
2022-08-20T06:19:46.903Z,502.00
2022-08-20T06:20:46.356Z,517.00
2022-08-20T06:21:46.365Z,537.00
2022-08-20T06:22:46.340Z,560.00
2022-08-20T06:23:58.214Z,585.00
2022-08-20T06:24:47.330Z,614.00
2022-08-20T06:25:46.320Z,639.00
2022-08-20T06:26:46.351Z,668.00
2022-08-20T06:27:46.297Z,698.00
2022-08-20T06:28:46.299Z,733.00
2022-08-20T06:29:46.320Z,774.00
2022-08-20T06:30:46.273Z,816.00
2022-08-20T06:31:46.280Z,861.00
2022-08-20T06:32:46.253Z,911.00
2022-08-20T06:33:46.248Z,971.00
2022-08-20T06:34:50.019Z,1044.00
2022-08-20T06:35:46.259Z,1124.00
2022-08-20T06:36:46.228Z,1202.00
2022-08-20T06:37:46.217Z,1276.00
2022-08-20T06:38:46.357Z,1345.00
2022-08-20T06:39:46.293Z,1412.00
2022-08-20T06:40:46.200Z,1482.00
2022-08-20T06:41:46.254Z,1554.00
2022-08-20T06:42:48.823Z,1628.00
2022-08-20T06:43:46.233Z,1703.00
2022-08-20T06:44:46.227Z,1763.00
2022-08-20T06:45:46.155Z,1819.00
2022-08-20T06:46:46.149Z,1871.00
2022-08-20T06:47:46.157Z,1923.00
2022-08-20T06:48:46.131Z,1968.00
2022-08-20T06:49:46.128Z,2005.00
2022-08-20T06:50:47.513Z,2031.00
2022-08-20T06:51:46.125Z,2069.00
2022-08-20T06:52:52.658Z,2112.00
2022-08-20T06:53:47.090Z,2169.00
2022-08-20T06:54:46.082Z,2235.00
2022-08-20T06:55:48.462Z,2288.00
2022-08-20T06:56:46.064Z,2333.00
2022-08-20T06:57:46.066Z,2334.00
2022-08-20T06:58:46.069Z,2258.00
2022-08-20T06:59:47.994Z,2107.00
2022-08-20T07:00:47.107Z,1916.00
2022-08-20T07:01:46.071Z,1713.00
2022-08-20T07:02:46.007Z,1515.00
2022-08-20T07:03:54.768Z,1354.00
2022-08-20T07:04:47.036Z,1221.00
2022-08-20T07:05:45.986Z,1133.00
2022-08-20T07:06:45.979Z,1090.00
2022-08-20T07:07:45.974Z,1078.00
2022-08-20T07:08:45.988Z,1087.00
2022-08-20T07:09:45.984Z,1100.00
2022-08-20T07:10:45.953Z,1098.00
2022-08-20T07:11:45.942Z,1071.00
2022-08-20T07:12:45.945Z,1019.00
2022-08-20T07:13:45.919Z,939.00
2022-08-20T07:14:45.945Z,865.00
2022-08-20T07:15:45.901Z,816.00
2022-08-20T07:16:45.895Z,801.00
2022-08-20T07:17:45.899Z,817.00
2022-08-20T07:18:45.960Z,861.00
2022-08-20T07:19:45.871Z,927.00
2022-08-20T07:20:45.901Z,1003.00
2022-08-20T07:21:45.883Z,1073.00
2022-08-20T07:22:45.853Z,1100.00
2022-08-20T07:23:45.845Z,1095.00
2022-08-20T07:24:49.019Z,1072.00
2022-08-20T07:25:45.825Z,1034.00
2022-08-20T07:26:45.814Z,982.00
2022-08-20T07:27:45.845Z,888.00
2022-08-20T07:28:45.807Z,819.00
2022-08-20T07:29:45.805Z,765.00
2022-08-20T07:30:56.679Z,714.00
2022-08-20T07:31:48.197Z,677.00
2022-08-20T07:32:45.796Z,635.00
2022-08-20T07:33:45.772Z,619.00
2022-08-20T07:34:45.754Z,624.00
2022-08-20T07:35:45.761Z,642.00
2022-08-20T07:36:45.744Z,670.00
2022-08-20T07:37:45.736Z,689.00
2022-08-20T07:38:45.791Z,709.00
2022-08-20T07:39:45.736Z,684.00
2022-08-20T07:40:45.695Z,655.00
2022-08-20T07:41:56.741Z,634.00
2022-08-20T07:42:46.688Z,622.00
2022-08-20T07:43:45.868Z,608.00
2022-08-20T07:44:45.710Z,570.00
2022-08-20T07:45:48.073Z,561.00
2022-08-20T07:46:46.666Z,569.00
2022-08-20T07:47:45.661Z,568.00
2022-08-20T07:48:45.649Z,577.00
2022-08-20T07:49:45.661Z,598.00
2022-08-20T07:50:45.627Z,628.00
2022-08-20T07:51:45.623Z,663.00
2022-08-20T07:52:45.604Z,688.00
2022-08-20T07:53:45.622Z,695.00
2022-08-20T07:54:45.588Z,705.00
2022-08-20T07:55:58.894Z,752.00
2022-08-20T07:56:46.580Z,819.00
2022-08-20T07:57:45.569Z,871.00
2022-08-20T07:58:45.558Z,935.00
2022-08-20T07:59:45.997Z,980.00
2022-08-20T08:00:45.615Z,1037.00
2022-08-20T08:01:45.802Z,1097.00
2022-08-20T08:02:45.915Z,1172.00
2022-08-20T08:03:50.409Z,1291.00
2022-08-20T08:04:46.795Z,1431.00
2022-08-20T08:05:45.532Z,1565.00
2022-08-20T08:06:45.542Z,1681.00
2022-08-20T08:07:45.559Z,1774.00
2022-08-20T08:08:45.484Z,1854.00
2022-08-20T08:09:45.583Z,1908.00
2022-08-20T08:10:45.523Z,1927.00
2022-08-20T08:11:47.623Z,1955.00
2022-08-20T08:12:45.506Z,1932.00
2022-08-20T08:13:45.435Z,1876.00
2022-08-20T08:14:45.422Z,1781.00
2022-08-20T08:15:45.745Z,1699.00
2022-08-20T08:16:45.459Z,1648.00
2022-08-20T08:17:45.462Z,1668.00
2022-08-20T08:18:45.398Z,1718.00
2022-08-20T08:19:45.395Z,1801.00
2022-08-20T08:20:46.594Z,1916.00
2022-08-20T08:21:45.388Z,2121.00
2022-08-20T08:22:45.367Z,2311.00
2022-08-20T08:23:45.397Z,2483.00
2022-08-20T08:24:56.797Z,2617.00
2022-08-20T08:25:46.339Z,2739.00
2022-08-20T08:26:45.331Z,2883.00
2022-08-20T08:27:45.331Z,3046.00
2022-08-20T08:28:45.330Z,3287.00
2022-08-20T08:29:45.341Z,3525.00
2022-08-20T08:30:45.340Z,3731.00
2022-08-20T08:31:45.296Z,3926.00
2022-08-20T08:32:45.338Z,4067.00
2022-08-20T08:33:45.352Z,4175.00
2022-08-20T08:34:45.286Z,4359.00
2022-08-20T08:35:45.259Z,4521.00
2022-08-20T08:36:45.250Z,4631.00
2022-08-20T08:37:45.271Z,4697.00
2022-08-20T08:38:45.242Z,5152.00
2022-08-20T08:39:45.293Z,5251.00
2022-08-20T08:40:45.335Z,5193.00
2022-08-20T08:41:45.237Z,5020.00
2022-08-20T08:42:45.222Z,5122.00
2022-08-20T08:43:45.207Z,4807.00
2022-08-20T08:44:45.272Z,5229.00
2022-08-20T08:45:45.185Z,5499.00
2022-08-20T08:46:45.193Z,5917.00
2022-08-20T08:47:45.219Z,7179.00
2022-08-20T08:48:45.258Z,6857.00
2022-08-20T08:49:45.164Z,7191.00
2022-08-20T08:50:54.286Z,6714.00
2022-08-20T08:51:46.174Z,6352.00
2022-08-20T08:52:45.119Z,6109.00
2022-08-20T08:53:45.131Z,6138.00
2022-08-20T08:54:45.104Z,6285.00
2022-08-20T08:55:45.103Z,6621.00
2022-08-20T08:56:50.420Z,7061.00
2022-08-20T08:57:46.105Z,7680.00
2022-08-20T08:58:45.144Z,8110.00
2022-08-20T08:59:52.213Z,8226.00
2022-08-20T09:00:56.115Z,8272.00
2022-08-20T09:01:53.914Z,8308.00
2022-08-20T09:02:46.108Z,8488.00
2022-08-20T09:03:45.068Z,8525.00
2022-08-20T09:04:46.244Z,8478.00
2022-08-20T09:05:45.036Z,8816.00
2022-08-20T09:06:45.015Z,9321.00
2022-08-20T09:07:45.000Z,9374.00
2022-08-20T09:08:45.000Z,9898.00
2022-08-20T09:09:45.005Z,10435.00
2022-08-20T09:10:45.017Z,10458.00
2022-08-20T09:11:44.983Z,10535.00
2022-08-20T09:12:47.723Z,10533.00
2022-08-20T09:13:44.992Z,10582.00
2022-08-20T09:14:44.948Z,10678.00
2022-08-20T09:15:44.937Z,10763.00
2022-08-20T09:16:53.016Z,11595.00
2022-08-20T09:17:45.926Z,11021.00
2022-08-20T09:18:44.930Z,10898.00
2022-08-20T09:19:44.977Z,10879.00
2022-08-20T09:20:44.898Z,11274.00
2022-08-20T09:21:44.880Z,12482.00
2022-08-20T09:22:44.889Z,13355.00
2022-08-20T09:23:44.874Z,13402.00
2022-08-20T09:24:44.885Z,13979.00
2022-08-20T09:25:44.874Z,14051.00
2022-08-20T09:26:44.849Z,13740.00
2022-08-20T09:27:44.838Z,13743.00
2022-08-20T09:28:47.023Z,12818.00
2022-08-20T09:29:45.843Z,11874.00
2022-08-20T09:30:44.812Z,11913.00
2022-08-20T09:31:45.100Z,12558.00
2022-08-20T09:32:44.788Z,13194.00
2022-08-20T09:33:44.791Z,14876.00
2022-08-20T09:34:44.782Z,14960.00
2022-08-20T09:35:44.775Z,13782.00
2022-08-20T09:36:44.768Z,13400.00
2022-08-20T09:37:44.789Z,12063.00
2022-08-20T09:38:44.747Z,12763.00
2022-08-20T09:39:44.774Z,13429.00
2022-08-20T09:40:44.771Z,13474.00
2022-08-20T09:41:44.735Z,13199.00
2022-08-20T09:42:44.715Z,12607.00
2022-08-20T09:43:44.769Z,12132.00
2022-08-20T09:44:44.691Z,12459.00
2022-08-20T09:45:44.695Z,13209.00
2022-08-20T09:46:44.682Z,12732.00
2022-08-20T09:47:56.560Z,12674.00
2022-08-20T09:48:45.684Z,11789.00
2022-08-20T09:49:44.660Z,10961.00
2022-08-20T09:50:44.647Z,11539.00
2022-08-20T09:51:44.641Z,11012.00
2022-08-20T09:52:44.643Z,9115.00
2022-08-20T09:53:44.631Z,8302.00
2022-08-20T09:54:46.542Z,7884.00
2022-08-20T09:55:44.619Z,8323.00
2022-08-20T09:56:44.652Z,8696.00
2022-08-20T09:57:44.604Z,7973.00
2022-08-20T09:58:44.616Z,7797.00
2022-08-20T09:59:44.614Z,9142.00
2022-08-20T10:00:44.570Z,10522.00
2022-08-20T10:01:44.612Z,9932.00
2022-08-20T10:02:44.552Z,9098.00
2022-08-20T10:03:44.553Z,8994.00
2022-08-20T10:04:44.557Z,9903.00
2022-08-20T10:05:44.585Z,10353.00
2022-08-20T10:06:44.554Z,9918.00
2022-08-20T10:07:44.529Z,9252.00
2022-08-20T10:08:44.517Z,9049.00
2022-08-20T10:09:44.511Z,8811.00
2022-08-20T10:10:44.497Z,8393.00
2022-08-20T10:11:44.513Z,8329.00
2022-08-20T10:12:44.483Z,8566.00
2022-08-20T10:13:44.489Z,9099.00
2022-08-20T10:14:44.479Z,9942.00
2022-08-20T10:15:44.473Z,10451.00
2022-08-20T10:16:44.702Z,10080.00
2022-08-20T10:17:44.439Z,8862.00
2022-08-20T10:18:44.465Z,8124.00
2022-08-20T10:19:44.423Z,7750.00
2022-08-20T10:20:44.418Z,7733.00
2022-08-20T10:21:44.411Z,8529.00
2022-08-20T10:22:44.424Z,9642.00
2022-08-20T10:23:44.398Z,10847.00
2022-08-20T10:24:44.402Z,11081.00
2022-08-20T10:25:44.389Z,11501.00
2022-08-20T10:26:44.520Z,11827.00
2022-08-20T10:27:44.397Z,10830.00
2022-08-20T10:28:44.356Z,10110.00
2022-08-20T10:29:46.986Z,10754.00
2022-08-20T10:30:44.354Z,9616.00
2022-08-20T10:31:44.327Z,9473.00
2022-08-20T10:32:45.246Z,9584.00
2022-08-20T10:33:44.765Z,9559.00
2022-08-20T10:34:44.310Z,8645.00
2022-08-20T10:35:44.326Z,8248.00
2022-08-20T10:36:44.314Z,7534.00
2022-08-20T10:37:44.283Z,7586.00
2022-08-20T10:38:44.393Z,7613.00
2022-08-20T10:39:44.299Z,6730.00
2022-08-20T10:40:52.209Z,6144.00
2022-08-20T10:41:45.259Z,5927.00
2022-08-20T10:42:44.268Z,6123.00
2022-08-20T10:43:44.349Z,6751.00
2022-08-20T10:44:44.475Z,7065.00
2022-08-20T10:45:44.233Z,6867.00
2022-08-20T10:46:44.212Z,6290.00
2022-08-20T10:47:44.206Z,5882.00
2022-08-20T10:48:44.198Z,5568.00
2022-08-20T10:49:44.193Z,5381.00
2022-08-20T10:50:44.234Z,5255.00
2022-08-20T10:51:44.171Z,5164.00
2022-08-20T10:52:44.307Z,4991.00
2022-08-20T10:53:44.221Z,4816.00
2022-08-20T10:54:44.152Z,4706.00
2022-08-20T10:55:44.149Z,4583.00
2022-08-20T10:56:44.176Z,4539.00
2022-08-20T10:57:44.158Z,4608.00
2022-08-20T10:58:44.529Z,4721.00
2022-08-20T10:59:44.110Z,4777.00
2022-08-20T11:00:44.102Z,4936.00
2022-08-20T11:01:44.138Z,5341.00
2022-08-20T11:02:44.150Z,6142.00
2022-08-20T11:03:44.079Z,5496.00
2022-08-20T11:04:44.122Z,5669.00
2022-08-20T11:05:44.063Z,6168.00
2022-08-20T11:06:44.074Z,6558.00
2022-08-20T11:08:00.233Z,6786.00
2022-08-20T11:08:45.056Z,6758.00
2022-08-20T11:09:44.037Z,6583.00
2022-08-20T11:10:44.050Z,6527.00
2022-08-20T11:11:44.019Z,6752.00
2022-08-20T11:12:45.556Z,6994.00
2022-08-20T11:13:44.025Z,8136.00
2022-08-20T11:14:43.993Z,9349.00
2022-08-20T11:15:44.008Z,9630.00
2022-08-20T11:16:44.010Z,9782.00
2022-08-20T11:17:43.982Z,8172.00
2022-08-20T11:18:47.427Z,8000.00
2022-08-20T11:19:43.952Z,9514.00
2022-08-20T11:20:43.968Z,9418.00
2022-08-20T11:21:44.057Z,9258.00
2022-08-20T11:22:43.930Z,9189.00
2022-08-20T11:23:43.929Z,9131.00
2022-08-20T11:24:43.913Z,9049.00
2022-08-20T11:25:43.929Z,8837.00
2022-08-20T11:26:43.981Z,8829.00
2022-08-20T11:27:43.896Z,8971.00
2022-08-20T11:28:43.916Z,8717.00
2022-08-20T11:29:43.885Z,8440.00
2022-08-20T11:30:43.870Z,8686.00
2022-08-20T11:31:43.871Z,8568.00
2022-08-20T11:32:44.057Z,8363.00
2022-08-20T11:33:44.294Z,8426.00
2022-08-20T11:34:43.920Z,8323.00
2022-08-20T11:35:49.256Z,8351.00
2022-08-20T11:36:44.828Z,8450.00
2022-08-20T11:37:43.823Z,8569.00
2022-08-20T11:38:43.919Z,8651.00
2022-08-20T11:39:43.872Z,8772.00
2022-08-20T11:40:43.925Z,8782.00
2022-08-20T11:41:43.822Z,8889.00
2022-08-20T11:43:10.720Z,8910.00
2022-08-20T11:43:59.562Z,8791.00
2022-08-20T11:44:44.773Z,8802.00
2022-08-20T11:45:43.795Z,8811.00
2022-08-20T11:46:43.747Z,8776.00
2022-08-20T11:47:43.747Z,8743.00
2022-08-20T11:48:43.757Z,8295.00
2022-08-20T11:49:43.720Z,7929.00
2022-08-20T11:50:43.735Z,7778.00
2022-08-20T11:51:49.683Z,7272.00
2022-08-20T11:52:44.792Z,6905.00
2022-08-20T11:53:43.700Z,7406.00
2022-08-20T11:54:43.710Z,7050.00
2022-08-20T11:55:43.784Z,7583.00
2022-08-20T11:56:45.735Z,7111.00
2022-08-20T11:57:43.672Z,7951.00
2022-08-20T11:58:43.661Z,7277.00
2022-08-20T11:59:43.674Z,7779.00
2022-08-20T12:00:43.717Z,8501.00
2022-08-20T12:02:01.896Z,9189.00
2022-08-20T12:02:44.714Z,9314.00
2022-08-20T12:03:43.640Z,9186.00
2022-08-20T12:04:43.601Z,9047.00
2022-08-20T12:05:43.602Z,7342.00
2022-08-20T12:06:43.660Z,7144.00
2022-08-20T12:07:43.697Z,6718.00
2022-08-20T12:08:43.601Z,6170.00
2022-08-20T12:09:50.351Z,5743.00
2022-08-20T12:10:44.577Z,5469.00
2022-08-20T12:11:43.565Z,5188.00
2022-08-20T12:12:43.572Z,4954.00
2022-08-20T12:13:48.054Z,4654.00
2022-08-20T12:14:44.536Z,4312.00
2022-08-20T12:15:43.560Z,4068.00
2022-08-20T12:16:43.514Z,3855.00
2022-08-20T12:17:44.227Z,3583.00
2022-08-20T12:18:43.516Z,3315.00
2022-08-20T12:19:43.586Z,3116.00
2022-08-20T12:20:43.485Z,2976.00
2022-08-20T12:21:43.479Z,2919.00
2022-08-20T12:22:43.490Z,2891.00
2022-08-20T12:23:43.461Z,2863.00
2022-08-20T12:24:44.291Z,2710.00
2022-08-20T12:25:44.299Z,2428.00
2022-08-20T12:26:43.447Z,2111.00
2022-08-20T12:27:43.435Z,1791.00
2022-08-20T12:28:43.465Z,1514.00
2022-08-20T12:29:43.413Z,1301.00
2022-08-20T12:30:44.291Z,1104.00
2022-08-20T12:31:43.402Z,961.00
2022-08-20T12:32:44.284Z,855.00
2022-08-20T12:33:43.384Z,802.00